Time;durP1;ratioP1;P1;durP2;ratioP2;P2;SDS_P1;SDS_P2;PMS_P1;PMS_P2;Temp;Humidity;BMP_temperature;BMP_pressure;BME280_temperature;BME280_humidity;BME280_pressure;Samples;Min_cycle;Max_cycle;Signal;HPM_P1;HPM_P2
2021/05/30 00:02:11;;;;;;;25.67;16.52;;;10.60;99.90;;;;;;4993000;28;20030;-73
2021/05/30 00:04:36;;;;;;;26.48;16.73;;;10.60;99.90;;;;;;5004190;28;20030;-74
2021/05/30 00:07:03;;;;;;;30.23;16.48;;;10.50;99.90;;;;;;5005350;28;20080;-72
2021/05/30 00:09:29;;;;;;;30.38;17.35;;;10.60;99.90;;;;;;5000023;28;20030;-71
2021/05/30 00:11:55;;;;;;;26.70;16.60;;;10.60;99.90;;;;;;5002402;28;20030;-73
2021/05/30 00:14:23;;;;;;;30.80;17.25;;;10.60;99.90;;;;;;5004625;28;20405;-74
2021/05/30 00:16:49;;;;;;;30.00;17.10;;;10.50;99.90;;;;;;5003909;28;20029;-73
2021/05/30 00:19:16;;;;;;;27.70;16.83;;;10.40;99.90;;;;;;5005758;28;20403;-73
2021/05/30 00:21:43;;;;;;;26.27;16.95;;;10.40;99.90;;;;;;4993205;28;20065;-72
2021/05/30 00:24:09;;;;;;;28.25;18.17;;;10.50;99.90;;;;;;5001922;28;20026;-73
2021/05/30 00:26:35;;;;;;;28.05;16.52;;;10.30;99.90;;;;;;5003233;28;20093;-75
2021/05/30 00:29:01;;;;;;;29.23;17.65;;;10.30;99.90;;;;;;4998614;28;20027;-73
2021/05/30 00:31:28;;;;;;;27.80;17.48;;;10.30;99.90;;;;;;5025436;28;20017;-73
2021/05/30 00:33:54;;;;;;;34.83;18.27;;;10.30;99.90;;;;;;5017884;28;20037;-71
2021/05/30 00:36:19;;;;;;;30.90;17.27;;;10.30;99.90;;;;;;5016049;28;20403;-72
2021/05/30 00:38:45;;;;;;;31.35;16.73;;;10.30;99.90;;;;;;5002499;28;20038;-72
2021/05/30 00:41:11;;;;;;;31.23;17.75;;;10.20;99.90;;;;;;5003040;28;20046;-73
2021/05/30 00:43:47;;;;;;;31.67;18.45;;;10.30;99.90;;;;;;5012266;28;20042;-74
2021/05/30 00:46:13;;;;;;;40.15;19.48;;;10.30;99.90;;;;;;5009655;28;20028;-70
2021/05/30 00:48:38;;;;;;;29.67;17.85;;;10.20;99.90;;;;;;5008245;28;20021;-71
2021/05/30 00:51:05;;;;;;;31.83;17.95;;;10.30;99.90;;;;;;4999686;28;20395;-72
2021/05/30 00:53:31;;;;;;;30.98;17.00;;;10.20;99.90;;;;;;4992708;28;20022;-73
2021/05/30 00:55:58;;;;;;;32.50;19.00;;;10.20;99.90;;;;;;5002136;28;20018;-72
2021/05/30 00:58:24;;;;;;;33.63;18.27;;;10.30;99.90;;;;;;5006557;28;20547;-73
2021/05/30 01:00:51;;;;;;;30.70;18.05;;;10.30;99.90;;;;;;5012033;28;20049;-73
2021/05/30 01:03:16;;;;;;;33.38;18.60;;;10.30;99.90;;;;;;5001144;28;20382;-72
2021/05/30 01:05:42;;;;;;;31.90;16.90;;;10.30;99.90;;;;;;5002652;28;20154;-72
2021/05/30 01:08:10;;;;;;;29.65;17.67;;;10.40;99.90;;;;;;5005075;28;20030;-73
2021/05/30 01:10:42;;;;;;;28.52;17.77;;;10.40;99.90;;;;;;5000351;28;20077;-72
2021/05/30 01:13:09;;;;;;;27.50;15.48;;;10.50;99.90;;;;;;5005251;28;20034;-73
2021/05/30 01:15:34;;;;;;;28.98;16.10;;;10.40;99.90;;;;;;5005003;28;20027;-74
2021/05/30 01:18:01;;;;;;;34.78;17.08;;;10.40;99.90;;;;;;5004632;28;20014;-73
2021/05/30 01:20:27;;;;;;;31.42;15.73;;;10.40;99.90;;;;;;5005539;28;20029;-73
2021/05/30 01:22:53;;;;;;;31.25;18.40;;;10.50;99.90;;;;;;5001551;28;20025;-71
2021/05/30 01:25:22;;;;;;;34.47;17.25;;;10.40;99.90;;;;;;5000158;28;20033;-72
2021/05/30 01:27:48;;;;;;;29.77;17.27;;;10.30;99.90;;;;;;5004404;28;20030;-71
2021/05/30 01:30:15;;;;;;;29.30;18.45;;;10.40;99.90;;;;;;5009227;28;20045;-73
2021/05/30 01:32:43;;;;;;;27.73;17.63;;;10.40;99.90;;;;;;5012544;28;20044;-73
2021/05/30 01:35:09;;;;;;;38.10;18.02;;;10.40;99.90;;;;;;5024772;28;20026;-73
2021/05/30 01:37:35;;;;;;;29.90;17.40;;;10.40;99.90;;;;;;5033501;28;20030;-72
2021/05/30 01:40:01;;;;;;;30.05;17.30;;;10.40;99.90;;;;;;5035248;28;20034;-72
2021/05/30 01:42:26;;;;;;;29.13;18.15;;;10.30;99.90;;;;;;5029020;28;20336;-74
2021/05/30 01:44:52;;;;;;;28.75;17.20;;;10.30;99.90;;;;;;5011967;28;20022;-73
2021/05/30 01:47:18;;;;;;;21.55;14.32;;;10.30;99.90;;;;;;5019248;28;20090;-73
2021/05/30 01:49:43;;;;;;;26.63;15.75;;;10.30;99.90;;;;;;5012900;28;20113;-73
2021/05/30 01:52:10;;;;;;;30.30;16.50;;;10.40;99.90;;;;;;5029720;28;20080;-74
2021/05/30 01:54:40;;;;;;;34.60;17.25;;;10.40;99.90;;;;;;5022333;28;20038;-73
2021/05/30 01:57:09;;;;;;;31.30;17.25;;;10.40;99.90;;;;;;5025703;28;20045;-77
2021/05/30 01:59:36;;;;;;;30.10;17.15;;;10.30;99.90;;;;;;5007579;28;20109;-71
2021/05/30 02:02:03;;;;;;;24.92;15.43;;;10.10;99.90;;;;;;5008217;28;20072;-72
2021/05/30 02:04:39;;;;;;;28.70;16.88;;;10.10;99.90;;;;;;5006420;28;20034;-72
2021/05/30 02:07:07;;;;;;;31.52;15.35;;;10.00;99.90;;;;;;5003658;28;20660;-74
2021/05/30 02:09:35;;;;;;;22.83;14.73;;;9.90;99.90;;;;;;5008871;28;20033;-72
2021/05/30 02:12:01;;;;;;;26.25;15.38;;;9.90;99.90;;;;;;5011850;28;20030;-73
2021/05/30 02:14:27;;;;;;;25.10;14.02;;;9.90;99.90;;;;;;5007428;28;20034;-72
2021/05/30 02:16:53;;;;;;;26.10;15.63;;;9.90;99.90;;;;;;4998727;28;20036;-76
2021/05/30 02:19:18;;;;;;;26.90;14.05;;;9.80;99.90;;;;;;4997797;28;20026;-75
2021/05/30 02:21:46;;;;;;;24.88;14.65;;;9.80;99.90;;;;;;4998120;28;20029;-74
2021/05/30 02:24:14;;;;;;;28.85;15.02;;;9.80;99.90;;;;;;4993810;28;20034;-73
2021/05/30 02:26:40;;;;;;;25.77;14.52;;;9.80;99.90;;;;;;4994273;28;20173;-72
2021/05/30 02:29:06;;;;;;;26.20;13.48;;;9.70;99.90;;;;;;4994272;28;20030;-74
2021/05/30 02:31:33;;;;;;;22.17;13.68;;;9.70;99.90;;;;;;5002892;28;20093;-71
2021/05/30 02:33:59;;;;;;;27.83;14.75;;;9.60;99.90;;;;;;4996937;28;20033;-74
2021/05/30 02:36:25;;;;;;;27.70;14.95;;;9.50;99.90;;;;;;5001522;28;20055;-71
2021/05/30 02:38:51;;;;;;;27.30;13.90;;;9.50;99.90;;;;;;5005900;28;20030;-74
2021/05/30 02:41:16;;;;;;;20.30;13.95;;;9.60;99.90;;;;;;5003091;28;20459;-75
2021/05/30 02:43:42;;;;;;;26.98;14.25;;;9.60;99.90;;;;;;4998870;28;20028;-73
2021/05/30 02:46:08;;;;;;;32.45;15.32;;;9.60;99.90;;;;;;4998502;28;20586;-70
2021/05/30 02:48:35;;;;;;;27.40;14.32;;;9.60;99.90;;;;;;5001507;28;20603;-74
2021/05/30 02:51:02;;;;;;;26.13;13.73;;;9.60;99.90;;;;;;5009992;28;20463;-74
2021/05/30 02:53:32;;;;;;;27.95;15.95;;;9.50;99.90;;;;;;4994551;28;20033;-75
2021/05/30 02:56:00;;;;;;;26.67;15.30;;;9.40;99.90;;;;;;5010148;28;20010;-72
2021/05/30 02:58:27;;;;;;;25.38;13.88;;;9.40;99.90;;;;;;5000573;28;20022;-72
2021/05/30 03:00:53;;;;;;;22.17;13.30;;;9.20;99.90;;;;;;5010122;28;20095;-73
2021/05/30 03:03:20;;;;;;;28.67;15.07;;;9.30;99.90;;;;;;5000342;28;20024;-73
2021/05/30 03:05:45;;;;;;;32.22;15.80;;;9.20;99.90;;;;;;5002129;28;20331;-72
2021/05/30 03:08:11;;;;;;;28.35;14.43;;;9.20;99.90;;;;;;4998761;28;20048;-73
2021/05/30 03:10:37;;;;;;;33.22;15.57;;;9.10;99.90;;;;;;5005833;28;20541;-73
2021/05/30 03:13:02;;;;;;;26.80;15.15;;;9.10;99.90;;;;;;5008583;28;20104;-74
2021/05/30 03:15:28;;;;;;;31.80;15.60;;;9.20;99.90;;;;;;4997551;28;20068;-72
2021/05/30 03:17:54;;;;;;;28.00;14.18;;;9.10;99.90;;;;;;5004409;28;20022;-73
2021/05/30 03:20:19;;;;;;;24.27;14.80;;;9.00;99.90;;;;;;5005226;28;20018;-73
2021/05/30 03:22:45;;;;;;;24.23;13.57;;;9.00;99.90;;;;;;5004865;28;20055;-71
2021/05/30 03:25:12;;;;;;;30.75;14.85;;;9.00;99.90;;;;;;4991683;28;20033;-74
2021/05/30 03:27:38;;;;;;;26.90;14.73;;;9.00;99.90;;;;;;5001542;28;20041;-73
2021/05/30 03:30:05;;;;;;;25.73;14.88;;;9.00;99.90;;;;;;5007083;28;20411;-72
2021/05/30 03:32:31;;;;;;;23.88;13.98;;;9.00;99.90;;;;;;4995136;28;20053;-73
2021/05/30 03:34:56;;;;;;;25.83;14.50;;;9.10;99.90;;;;;;5005012;28;20038;-72
2021/05/30 03:37:22;;;;;;;21.45;14.45;;;9.00;99.90;;;;;;4997722;28;20053;-71
2021/05/30 03:39:48;;;;;;;29.92;15.30;;;9.00;99.90;;;;;;4991050;28;20026;-74
2021/05/30 03:42:20;;;;;;;21.65;14.48;;;8.90;99.90;;;;;;5004134;28;20041;-74
2021/05/30 03:44:46;;;;;;;26.50;15.75;;;8.90;99.90;;;;;;5005072;28;20736;-72
2021/05/30 03:47:12;;;;;;;26.73;15.15;;;9.00;99.90;;;;;;5007701;28;20042;-73
2021/05/30 03:49:39;;;;;;;29.98;14.50;;;8.90;99.90;;;;;;5000403;28;20056;-73
2021/05/30 03:52:06;;;;;;;30.30;15.25;;;8.90;99.90;;;;;;4990659;28;20053;-73
2021/05/30 03:54:31;;;;;;;28.88;16.17;;;9.00;99.90;;;;;;4994895;28;20057;-71
2021/05/30 03:56:58;;;;;;;24.45;14.68;;;8.90;99.90;;;;;;5008712;28;20030;-72
2021/05/30 03:59:24;;;;;;;27.60;14.65;;;8.90;99.90;;;;;;4997092;28;20392;-73
2021/05/30 04:01:50;;;;;;;25.00;13.70;;;8.90;99.90;;;;;;4997297;28;20037;-72
2021/05/30 04:04:16;;;;;;;27.38;14.55;;;8.90;99.90;;;;;;5005487;28;20905;-72
2021/05/30 04:06:41;;;;;;;31.02;14.55;;;8.80;99.90;;;;;;5004417;28;20026;-73
2021/05/30 04:09:07;;;;;;;24.23;13.77;;;8.80;99.90;;;;;;5005144;28;20399;-72
2021/05/30 04:11:33;;;;;;;23.25;14.18;;;8.90;99.90;;;;;;5000504;28;20388;-71
2021/05/30 04:13:59;;;;;;;23.48;12.40;;;9.00;99.90;;;;;;5005787;28;20038;-73
2021/05/30 04:16:25;;;;;;;25.02;14.30;;;8.90;99.90;;;;;;5001791;28;20026;-73
2021/05/30 04:18:50;;;;;;;26.65;14.43;;;9.00;99.90;;;;;;5007458;28;20022;-74
2021/05/30 04:21:16;;;;;;;20.35;12.20;;;9.10;99.90;;;;;;4995345;28;20531;-72
2021/05/30 04:23:41;;;;;;;26.98;14.68;;;9.10;99.90;;;;;;5001205;28;20014;-72
2021/05/30 04:26:07;;;;;;;23.42;13.50;;;9.10;99.90;;;;;;5004406;28;20077;-71
2021/05/30 04:28:33;;;;;;;25.42;14.25;;;9.00;99.90;;;;;;5002573;28;20490;-72
2021/05/30 04:30:59;;;;;;;24.23;13.88;;;9.10;99.90;;;;;;5003841;28;20105;-72
2021/05/30 04:33:25;;;;;;;24.95;12.98;;;9.20;99.90;;;;;;4991448;28;20109;-73
2021/05/30 04:35:50;;;;;;;21.02;13.93;;;9.20;99.90;;;;;;5003255;28;20113;-73
2021/05/30 04:38:18;;;;;;;27.83;13.73;;;9.10;99.90;;;;;;5000109;28;20030;-73
2021/05/30 04:40:44;;;;;;;26.00;13.23;;;9.20;99.90;;;;;;5008922;28;20014;-72
2021/05/30 04:43:10;;;;;;;19.33;14.13;;;9.20;99.90;;;;;;5009491;28;20026;-73
2021/05/30 04:45:35;;;;;;;26.27;13.43;;;9.20;99.90;;;;;;5003837;28;20037;-70
2021/05/30 04:48:01;;;;;;;25.90;13.98;;;9.20;99.90;;;;;;5006959;28;20018;-72
2021/05/30 04:50:27;;;;;;;30.30;14.02;;;9.20;99.90;;;;;;5019888;28;20036;-72
2021/05/30 04:52:52;;;;;;;26.67;13.93;;;9.30;99.90;;;;;;5007749;28;20053;-72
2021/05/30 04:55:18;;;;;;;30.58;14.70;;;9.40;99.90;;;;;;5010395;28;20060;-73
2021/05/30 04:57:45;;;;;;;25.50;14.80;;;9.40;99.90;;;;;;5000678;28;20069;-72
2021/05/30 05:00:12;;;;;;;23.02;14.38;;;9.40;99.90;;;;;;5011732;28;20083;-73
2021/05/30 05:02:38;;;;;;;25.88;13.25;;;9.40;99.90;;;;;;5004363;28;20037;-73
2021/05/30 05:05:05;;;;;;;26.08;13.43;;;9.40;99.90;;;;;;5001376;28;20018;-71
2021/05/30 05:07:31;;;;;;;19.80;11.93;;;9.50;99.90;;;;;;4996179;28;20511;-75
2021/05/30 05:09:57;;;;;;;24.77;12.50;;;9.70;99.90;;;;;;5002803;28;20057;-71
2021/05/30 05:12:22;;;;;;;27.55;14.32;;;9.70;99.90;;;;;;5017455;28;20022;-73
2021/05/30 05:14:48;;;;;;;25.13;13.77;;;9.60;99.90;;;;;;5020506;28;20030;-72
2021/05/30 05:17:14;;;;;;;21.55;12.90;;;9.60;99.90;;;;;;5020935;28;20022;-72
2021/05/30 05:19:50;;;;;;;20.88;13.15;;;9.70;99.90;;;;;;5021914;28;20049;-74
2021/05/30 05:22:16;;;;;;;21.17;13.05;;;9.70;99.90;;;;;;5018422;28;20086;-75
2021/05/30 05:24:44;;;;;;;26.58;13.50;;;9.80;99.90;;;;;;5027945;28;20026;-73
2021/05/30 05:27:19;;;;;;;20.48;12.23;;;9.80;99.90;;;;;;5032420;28;20049;-72
2021/05/30 05:29:47;;;;;;;25.92;13.52;;;10.00;99.90;;;;;;5037740;28;20037;-71
2021/05/30 05:32:17;;;;;;;28.55;13.10;;;10.00;99.90;;;;;;5020446;28;20033;-74
2021/05/30 05:34:42;;;;;;;25.42;13.82;;;9.90;99.90;;;;;;5022692;28;20065;-72
2021/05/30 05:37:08;;;;;;;27.00;13.70;;;9.90;99.90;;;;;;5011339;28;20027;-71
2021/05/30 05:39:33;;;;;;;22.70;13.45;;;9.90;99.90;;;;;;5006876;28;20010;-72
2021/05/30 05:41:59;;;;;;;25.52;12.80;;;9.90;99.90;;;;;;5001366;28;20068;-73
2021/05/30 05:44:25;;;;;;;22.70;13.27;;;10.00;99.90;;;;;;5009824;28;20022;-74
2021/05/30 05:46:50;;;;;;;26.30;13.30;;;10.20;99.90;;;;;;5012071;28;20025;-71
2021/05/30 05:49:16;;;;;;;25.08;12.30;;;10.20;99.90;;;;;;5008440;28;20035;-71
2021/05/30 05:51:42;;;;;;;24.25;11.75;;;10.10;99.90;;;;;;5003207;28;20116;-73
2021/05/30 05:54:07;;;;;;;28.35;14.40;;;10.10;99.90;;;;;;5008875;28;20038;-72
2021/05/30 05:56:33;;;;;;;22.92;13.07;;;10.30;99.90;;;;;;4998738;28;20018;-72
2021/05/30 05:58:59;;;;;;;20.10;12.05;;;10.10;99.90;;;;;;5000076;28;20011;-72
2021/05/30 06:01:24;;;;;;;26.98;14.00;;;10.10;99.90;;;;;;4994253;28;20424;-73
2021/05/30 06:03:50;;;;;;;20.58;12.75;;;10.20;99.90;;;;;;4995264;28;20026;-73
2021/05/30 06:06:17;;;;;;;24.92;13.00;;;10.40;99.90;;;;;;5002946;28;20067;-72
2021/05/30 06:08:43;;;;;;;23.67;13.43;;;10.50;99.90;;;;;;5012464;28;20067;-72
2021/05/30 06:11:08;;;;;;;25.38;12.07;;;10.60;99.90;;;;;;5000750;28;20498;-72
2021/05/30 06:13:34;;;;;;;31.35;13.05;;;10.70;99.90;;;;;;4999672;28;20023;-73
2021/05/30 06:15:59;;;;;;;27.13;12.90;;;10.70;99.90;;;;;;5003169;28;20100;-72
2021/05/30 06:18:27;;;;;;;23.25;11.85;;;10.70;99.90;;;;;;5007922;28;20023;-72
2021/05/30 06:20:53;;;;;;;20.38;13.50;;;10.70;99.90;;;;;;5009870;28;20025;-73
2021/05/30 06:23:18;;;;;;;25.65;12.23;;;10.80;99.90;;;;;;5007623;28;20027;-73
2021/05/30 06:25:44;;;;;;;19.98;11.32;;;11.00;99.90;;;;;;5026894;28;20093;-73
2021/05/30 06:28:10;;;;;;;23.13;13.10;;;11.40;99.90;;;;;;5010333;28;20048;-73
2021/05/30 06:30:39;;;;;;;24.65;12.50;;;11.70;99.90;;;;;;5016440;28;20056;-73
2021/05/30 06:33:06;;;;;;;23.73;13.15;;;11.60;99.90;;;;;;5012350;28;20033;-72
2021/05/30 06:35:35;;;;;;;27.20;12.18;;;11.50;99.90;;;;;;5003107;28;20063;-74
2021/05/30 06:38:01;;;;;;;20.85;13.23;;;11.80;99.90;;;;;;4994994;28;20033;-73
2021/05/30 06:40:27;;;;;;;21.40;13.50;;;11.90;99.90;;;;;;5011492;28;20034;-72
2021/05/30 06:42:53;;;;;;;25.08;13.63;;;12.00;99.90;;;;;;4995203;28;20089;-73
2021/05/30 06:45:18;;;;;;;22.67;13.60;;;11.90;99.90;;;;;;5004391;28;20636;-73
2021/05/30 06:47:44;;;;;;;20.73;12.35;;;11.80;99.90;;;;;;5001301;28;20033;-72
2021/05/30 06:50:10;;;;;;;19.95;13.00;;;11.90;99.90;;;;;;5003083;28;20042;-74
2021/05/30 06:52:36;;;;;;;26.00;14.30;;;11.90;99.90;;;;;;5004531;28;20122;-73
2021/05/30 06:55:03;;;;;;;25.25;13.27;;;11.90;99.90;;;;;;5002758;28;20026;-74
2021/05/30 06:57:29;;;;;;;19.98;12.00;;;12.20;99.90;;;;;;4997236;28;20026;-73
2021/05/30 06:59:54;;;;;;;21.05;12.57;;;12.40;99.90;;;;;;4997471;28;20129;-72
2021/05/30 07:02:20;;;;;;;20.90;13.57;;;12.50;99.90;;;;;;4998661;28;20026;-77
2021/05/30 07:04:45;;;;;;;21.65;13.05;;;12.40;99.90;;;;;;5006120;28;20052;-74
2021/05/30 07:07:11;;;;;;;19.30;11.98;;;12.20;99.90;;;;;;5001236;28;20476;-72
2021/05/30 07:09:37;;;;;;;23.08;13.05;;;12.60;99.90;;;;;;5012100;28;20025;-73
2021/05/30 07:12:04;;;;;;;23.30;12.15;;;12.70;99.90;;;;;;4998664;28;20455;-74
2021/05/30 07:14:31;;;;;;;22.67;12.93;;;13.00;99.90;;;;;;5005443;28;20072;-74
2021/05/30 07:16:56;;;;;;;20.40;13.23;;;12.90;99.90;;;;;;5002109;28;20022;-74
2021/05/30 07:19:24;;;;;;;21.27;13.52;;;12.30;99.90;;;;;;5008591;28;20104;-75
2021/05/30 07:21:50;;;;;;;24.33;13.05;;;12.50;99.90;;;;;;4996048;28;20531;-72
2021/05/30 07:24:16;;;;;;;25.35;14.23;;;12.20;99.90;;;;;;5000808;28;20022;-74
2021/05/30 07:26:42;;;;;;;26.30;14.25;;;12.40;99.90;;;;;;5003737;28;20026;-72
2021/05/30 07:29:08;;;;;;;27.17;13.20;;;12.60;99.90;;;;;;4994627;28;20028;-73
2021/05/30 07:31:34;;;;;;;30.30;15.30;;;12.60;99.90;;;;;;4996603;28;20026;-73
2021/05/30 07:34:00;;;;;;;26.73;15.38;;;12.30;99.90;;;;;;4998173;28;20550;-74
2021/05/30 07:36:28;;;;;;;32.97;13.57;;;12.20;99.90;;;;;;5007186;28;20013;-72
2021/05/30 07:38:58;;;;;;;30.75;15.90;;;12.70;99.90;;;;;;5003306;28;20018;-73
2021/05/30 07:41:24;;;;;;;29.73;15.98;;;12.80;99.90;;;;;;4998571;28;20026;-73
2021/05/30 07:43:50;;;;;;;27.20;15.65;;;12.50;99.90;;;;;;5010376;28;20026;-74
2021/05/30 07:46:15;;;;;;;27.20;15.13;;;12.60;99.90;;;;;;5007729;28;20642;-73
2021/05/30 07:48:41;;;;;;;31.40;15.55;;;12.90;99.90;;;;;;5015317;28;20022;-73
2021/05/30 07:51:07;;;;;;;25.83;15.65;;;13.00;99.90;;;;;;5022624;28;20030;-73
2021/05/30 07:53:33;;;;;;;27.95;14.93;;;13.20;99.90;;;;;;5004483;28;20026;-71
2021/05/30 07:55:59;;;;;;;27.77;15.90;;;13.50;99.90;;;;;;4996765;28;20449;-74
2021/05/30 07:58:25;;;;;;;30.95;16.42;;;13.50;99.90;;;;;;4997997;28;20014;-72
2021/05/30 08:00:51;;;;;;;23.73;15.52;;;13.50;99.90;;;;;;5011764;28;20475;-76
2021/05/30 08:03:17;;;;;;;34.45;16.15;;;13.10;99.90;;;;;;5007536;28;20026;-74
2021/05/30 08:05:43;;;;;;;27.70;16.33;;;13.20;99.90;;;;;;4999474;28;20036;-73
2021/05/30 08:08:09;;;;;;;21.55;15.43;;;13.30;99.90;;;;;;5005038;28;20137;-72
2021/05/30 08:10:35;;;;;;;24.88;15.15;;;13.30;99.90;;;;;;5005146;28;20054;-74
2021/05/30 08:13:00;;;;;;;25.48;15.10;;;13.50;99.90;;;;;;5003995;28;20093;-76
2021/05/30 08:15:26;;;;;;;32.50;15.40;;;13.90;99.90;;;;;;4994091;28;20211;-75
2021/05/30 08:17:54;;;;;;;24.98;16.80;;;14.10;99.90;;;;;;5005118;28;20045;-74
2021/05/30 08:20:22;;;;;;;23.00;15.40;;;14.30;99.90;;;;;;5002430;28;20034;-72
2021/05/30 08:22:48;;;;;;;26.80;16.90;;;14.40;99.90;;;;;;5007715;28;20558;-74
2021/05/30 08:25:19;;;;;;;32.45;16.83;;;14.30;99.90;;;;;;4996560;28;20037;-73
2021/05/30 08:27:48;;;;;;;23.90;15.65;;;14.30;99.90;;;;;;4996462;28;20046;-72
2021/05/30 08:30:14;;;;;;;27.90;16.80;;;14.30;99.90;;;;;;4992770;28;20105;-73
2021/05/30 08:32:40;;;;;;;24.50;16.60;;;14.20;99.90;;;;;;4996442;28;20476;-71
2021/05/30 08:35:06;;;;;;;27.35;17.98;;;14.20;99.90;;;;;;5002722;28;20030;-72
2021/05/30 08:37:33;;;;;;;32.63;17.88;;;13.90;99.90;;;;;;5004842;28;20029;-73
2021/05/30 08:39:59;;;;;;;30.92;16.70;;;14.00;99.90;;;;;;5006776;28;20250;-74
2021/05/30 08:42:24;;;;;;;26.80;16.83;;;14.20;99.90;;;;;;4999324;28;20508;-73
2021/05/30 08:44:51;;;;;;;26.35;16.95;;;14.20;99.90;;;;;;5002751;28;20029;-74
2021/05/30 08:47:21;;;;;;;31.48;18.92;;;14.50;99.90;;;;;;5000427;28;20626;-73
2021/05/30 08:49:47;;;;;;;31.80;18.83;;;14.40;99.90;;;;;;5012666;28;20042;-76
2021/05/30 08:52:13;;;;;;;23.58;17.08;;;14.70;99.90;;;;;;5006514;28;20298;-73
2021/05/30 08:54:39;;;;;;;27.48;16.33;;;15.00;99.90;;;;;;5011794;28;20543;-72
2021/05/30 08:57:05;;;;;;;23.30;17.17;;;15.40;99.90;;;;;;5005877;28;20048;-72
2021/05/30 08:59:33;;;;;;;29.52;17.73;;;15.30;99.90;;;;;;5003076;28;20052;-73
2021/05/30 09:02:01;;;;;;;32.50;18.48;;;15.20;99.90;;;;;;5008552;28;20075;-72
2021/05/30 09:04:33;;;;;;;30.90;17.90;;;15.30;99.90;;;;;;5008933;28;20026;-73
2021/05/30 09:06:59;;;;;;;24.67;16.10;;;15.20;99.90;;;;;;5007324;28;20018;-72
2021/05/30 09:09:25;;;;;;;26.13;17.00;;;15.50;99.90;;;;;;5009724;28;20251;-74
2021/05/30 09:11:52;;;;;;;23.25;16.15;;;15.40;99.90;;;;;;5007006;28;20091;-72
2021/05/30 09:14:25;;;;;;;34.08;17.50;;;15.20;99.90;;;;;;5011193;28;20080;-73
2021/05/30 09:16:58;;;;;;;31.10;17.02;;;15.20;99.90;;;;;;5003922;28;20048;-72
2021/05/30 09:19:50;;;;;;;28.00;16.48;;;15.40;99.90;;;;;;5001840;28;20023;-73
2021/05/30 09:22:36;;;;;;;28.75;16.20;;;15.90;99.90;;;;;;5001789;28;20570;-75
2021/05/30 09:25:17;;;;;;;36.72;18.65;;;16.10;99.90;;;;;;5000593;28;20034;-73
2021/05/30 09:27:48;;;;;;;28.23;17.17;;;16.30;99.90;;;;;;5005745;28;20448;-71
2021/05/30 09:30:18;;;;;;;28.73;16.52;;;16.30;99.90;;;;;;5003912;28;20530;-73
2021/05/30 09:33:18;;;;;;;30.13;17.50;;;16.40;99.90;;;;;;5007093;28;20022;-74
2021/05/30 09:35:46;;;;;;;25.73;15.48;;;16.80;99.90;;;;;;5002289;28;20034;-75
2021/05/30 09:38:15;;;;;;;27.00;16.90;;;16.90;99.90;;;;;;5006754;28;20022;-73
2021/05/30 09:40:45;;;;;;;24.42;15.20;;;17.10;99.90;;;;;;5001780;28;20106;-74
2021/05/30 09:43:28;;;;;;;27.27;16.10;;;17.40;99.90;;;;;;5010167;28;20758;-73
2021/05/30 09:46:06;;;;;;;32.03;17.15;;;17.70;99.90;;;;;;5005304;28;20053;-71
2021/05/30 09:48:34;;;;;;;25.45;16.67;;;17.60;99.90;;;;;;5001908;28;20029;-71
2021/05/30 09:51:06;;;;;;;22.83;16.65;;;17.60;99.90;;;;;;5002701;28;20113;-73
2021/05/30 09:53:43;;;;;;;24.98;16.70;;;17.70;99.90;;;;;;5007498;28;20041;-72
2021/05/30 09:56:27;;;;;;;25.90;17.02;;;17.90;99.90;;;;;;5011198;28;20025;-73
2021/05/30 09:58:53;;;;;;;26.95;17.00;;;17.80;99.90;;;;;;5017359;28;20030;-74
2021/05/30 10:01:19;;;;;;;26.33;16.75;;;17.30;99.90;;;;;;5007553;28;20369;-75
2021/05/30 10:03:44;;;;;;;25.77;17.42;;;17.20;99.90;;;;;;5001650;28;20070;-74
2021/05/30 10:06:11;;;;;;;24.92;16.48;;;17.20;99.90;;;;;;5014497;28;20090;-74
2021/05/30 10:08:38;;;;;;;25.65;16.55;;;17.10;99.90;;;;;;5007800;28;20524;-73
2021/05/30 10:11:04;;;;;;;22.27;15.07;;;17.30;99.90;;;;;;5010309;28;20048;-72
2021/05/30 10:13:30;;;;;;;23.52;15.73;;;17.50;99.90;;;;;;5008292;28;20069;-74
2021/05/30 10:15:56;;;;;;;26.30;16.08;;;17.70;99.90;;;;;;5008198;28;20196;-73
2021/05/30 10:18:36;;;;;;;25.88;16.83;;;17.80;99.90;;;;;;5000075;28;20027;-72
2021/05/30 10:21:03;;;;;;;25.10;15.98;;;17.70;99.90;;;;;;4998680;28;20045;-75
2021/05/30 10:23:31;;;;;;;28.58;17.15;;;17.60;99.90;;;;;;5000225;28;20018;-72
2021/05/30 10:26:19;;;;;;;23.90;14.98;;;17.50;99.90;;;;;;4998946;28;20026;-71
2021/05/30 10:28:47;;;;;;;24.30;15.90;;;17.60;99.90;;;;;;4993922;28;20053;-74
2021/05/30 10:31:19;;;;;;;23.60;16.70;;;18.10;99.90;;;;;;4998254;28;20030;-75
2021/05/30 10:34:03;;;;;;;28.17;17.55;;;18.20;99.90;;;;;;5003578;28;20033;-74
2021/05/30 10:36:29;;;;;;;20.88;13.23;;;18.20;99.90;;;;;;4991296;28;20046;-73
2021/05/30 10:38:55;;;;;;;20.65;13.20;;;18.20;99.90;;;;;;4997091;28;20037;-72
2021/05/30 10:41:23;;;;;;;17.95;12.27;;;18.30;99.90;;;;;;4994710;28;20030;-72
2021/05/30 10:43:49;;;;;;;19.20;12.15;;;18.30;99.90;;;;;;5000089;28;20030;-73
2021/05/30 10:46:15;;;;;;;23.85;12.55;;;18.40;99.90;;;;;;5004828;28;20023;-73
2021/05/30 10:48:45;;;;;;;18.42;11.88;;;18.30;99.90;;;;;;5004417;28;20109;-71
2021/05/30 10:53:44;;;;;;;12.98;8.98;;;18.50;99.90;;;;;;5011629;28;20033;-73
2021/05/30 10:56:32;;;;;;;14.65;8.30;;;18.60;99.90;;;;;;4994619;28;20022;-75
2021/05/30 10:59:04;;;;;;;11.27;7.93;;;18.40;99.90;;;;;;5016622;28;20028;-73
2021/05/30 11:01:44;;;;;;;14.88;8.63;;;18.80;99.90;;;;;;5029068;28;20022;-73
2021/05/30 11:07:00;;;;;;;15.07;10.35;;;19.10;99.90;;;;;;5010437;28;20287;-74
2021/05/30 11:09:48;;;;;;;11.45;8.45;;;19.40;99.90;;;;;;5009026;28;20046;-73
2021/05/30 11:12:20;;;;;;;13.27;7.53;;;19.60;98.70;;;;;;5012304;28;20036;-72
2021/05/30 11:15:11;;;;;;;11.40;7.20;;;19.70;98.20;;;;;;5006134;28;20029;-72
2021/05/30 11:17:42;;;;;;;14.93;7.47;;;19.60;97.50;;;;;;5010431;28;20475;-73
2021/05/30 11:20:13;;;;;;;14.82;7.13;;;19.60;98.40;;;;;;5011800;28;20081;-73
2021/05/30 11:22:43;;;;;;;9.98;6.00;;;19.70;98.10;;;;;;5009660;28;20026;-73
2021/05/30 11:25:10;;;;;;;10.60;5.85;;;19.50;95.40;;;;;;5005009;28;20034;-73
2021/05/30 11:27:58;;;;;;;11.50;6.43;;;19.50;96.30;;;;;;4997634;28;20499;-74
2021/05/30 11:30:43;;;;;;;8.88;6.65;;;19.40;95.10;;;;;;4998265;28;20056;-72
2021/05/30 11:33:15;;;;;;;10.95;6.88;;;19.60;96.50;;;;;;4998697;28;20027;-75
2021/05/30 11:35:41;;;;;;;20.83;7.68;;;19.80;95.80;;;;;;5011169;28;20081;-75
2021/05/30 11:38:07;;;;;;;12.77;7.20;;;19.50;95.40;;;;;;5000607;28;20022;-74
2021/05/30 11:40:35;;;;;;;11.02;6.93;;;19.50;96.90;;;;;;5003387;28;20081;-71
2021/05/30 11:43:30;;;;;;;10.88;6.50;;;20.00;96.40;;;;;;5005366;28;20056;-74
2021/05/30 11:45:55;;;;;;;10.88;6.60;;;20.50;94.20;;;;;;4992430;28;20049;-73
2021/05/30 11:48:21;;;;;;;11.02;7.75;;;20.70;93.30;;;;;;4994610;28;20026;-75
2021/05/30 11:50:53;;;;;;;10.88;6.07;;;20.70;91.60;;;;;;5007434;28;20073;-73
2021/05/30 11:53:29;;;;;;;8.85;6.63;;;20.60;93.40;;;;;;5001787;28;20443;-76
2021/05/30 11:56:01;;;;;;;8.10;6.68;;;20.00;92.90;;;;;;5001721;28;20048;-74
2021/05/30 11:58:26;;;;;;;12.25;7.13;;;20.10;94.60;;;;;;5003276;28;20038;-73
2021/05/30 12:00:57;;;;;;;9.60;6.68;;;20.40;92.60;;;;;;5006184;28;20547;-73
2021/05/30 12:03:23;;;;;;;10.05;6.68;;;20.60;92.10;;;;;;4999991;28;20045;-73
2021/05/30 12:06:09;;;;;;;11.30;8.27;;;20.80;92.80;;;;;;5005323;28;20081;-73
2021/05/30 12:08:35;;;;;;;13.43;8.45;;;20.50;90.80;;;;;;4997772;28;20121;-74
2021/05/30 12:11:02;;;;;;;10.95;7.85;;;20.40;92.50;;;;;;4996654;28;20109;-73
2021/05/30 12:13:39;;;;;;;13.75;7.82;;;20.80;92.70;;;;;;5017049;28;20412;-75
2021/05/30 12:16:15;;;;;;;11.68;7.57;;;20.80;91.10;;;;;;5013808;28;20042;-75
2021/05/30 12:18:53;;;;;;;12.65;7.28;;;20.90;91.00;;;;;;5017768;28;20089;-73
2021/05/30 12:21:20;;;;;;;16.67;7.85;;;20.60;90.30;;;;;;5024611;28;20049;-73
2021/05/30 12:23:48;;;;;;;13.23;8.73;;;20.60;91.80;;;;;;5022778;28;20052;-72
2021/05/30 12:26:17;;;;;;;12.98;8.68;;;20.70;91.50;;;;;;5011933;28;20032;-73
2021/05/30 12:28:43;;;;;;;10.65;8.30;;;21.00;91.10;;;;;;5004122;28;20042;-75
2021/05/30 12:31:16;;;;;;;13.18;7.88;;;21.30;90.30;;;;;;5015804;28;20056;-74
2021/05/30 12:33:58;;;;;;;15.07;7.75;;;21.20;89.70;;;;;;5021942;28;20013;-74
2021/05/30 12:36:43;;;;;;;7.82;6.03;;;21.10;90.30;;;;;;5020564;28;20044;-73
2021/05/30 12:39:17;;;;;;;12.80;7.13;;;21.10;87.30;;;;;;5015179;28;20018;-73
2021/05/30 12:41:46;;;;;;;8.00;6.05;;;21.10;89.20;;;;;;5024013;28;20026;-73